createdAt,value
2023-05-21T00:00:15.447Z,21.64
2023-05-21T00:02:42.042Z,21.64
2023-05-21T00:05:14.732Z,21.60
2023-05-21T00:07:40.824Z,21.62
2023-05-21T00:10:06.907Z,21.62
2023-05-21T00:12:32.571Z,21.62
2023-05-21T00:14:58.965Z,21.62
2023-05-21T00:17:25.298Z,21.61
2023-05-21T00:19:51.136Z,21.59
2023-05-21T00:22:17.110Z,21.61
2023-05-21T00:24:45.090Z,21.63
2023-05-21T00:27:11.617Z,21.64
2023-05-21T00:29:37.459Z,21.62
2023-05-21T00:32:03.375Z,21.64
2023-05-21T00:34:29.029Z,21.63
2023-05-21T00:36:54.997Z,21.61
2023-05-21T00:39:20.945Z,21.63
2023-05-21T00:41:47.779Z,21.62
2023-05-21T00:44:14.191Z,21.63
2023-05-21T00:46:40.436Z,21.62
2023-05-21T00:49:06.456Z,21.63
2023-05-21T00:51:32.359Z,21.64
2023-05-21T00:53:58.106Z,21.61
2023-05-21T00:56:24.132Z,21.63
2023-05-21T00:58:51.079Z,21.61
2023-05-21T01:01:17.581Z,21.62
2023-05-21T01:03:43.552Z,21.62
2023-05-21T01:06:10.196Z,21.60
2023-05-21T01:08:36.826Z,21.61
2023-05-21T01:11:03.129Z,21.61
2023-05-21T01:13:29.148Z,21.63
2023-05-21T01:15:55.008Z,21.64
2023-05-21T01:18:21.183Z,21.61
2023-05-21T01:20:48.335Z,21.63
2023-05-21T01:23:16.314Z,21.62
2023-05-21T01:25:42.378Z,21.62
2023-05-21T01:28:08.062Z,21.63
2023-05-21T01:30:34.626Z,21.62
2023-05-21T01:33:03.228Z,21.64
2023-05-21T01:35:34.981Z,21.62
2023-05-21T01:38:30.630Z,21.61
2023-05-21T01:41:02.794Z,21.63
2023-05-21T01:43:31.067Z,21.61
2023-05-21T01:45:56.647Z,21.63
2023-05-21T01:48:24.132Z,21.63
2023-05-21T01:50:50.482Z,21.63
2023-05-21T01:53:16.490Z,21.63
2023-05-21T01:55:42.882Z,21.63
2023-05-21T01:58:09.236Z,21.62
2023-05-21T02:00:35.101Z,21.62
2023-05-21T02:03:00.839Z,21.64
2023-05-21T02:05:26.588Z,21.62
2023-05-21T02:07:52.506Z,21.63
2023-05-21T02:10:18.534Z,21.64
2023-05-21T02:12:44.241Z,21.62
2023-05-21T02:15:10.149Z,21.61
2023-05-21T02:17:37.833Z,21.62
2023-05-21T02:20:10.860Z,21.62
2023-05-21T02:22:39.717Z,21.63
2023-05-21T02:25:08.036Z,21.65
2023-05-21T02:27:35.772Z,21.62
2023-05-21T02:30:03.659Z,21.62
2023-05-21T02:32:31.036Z,21.62
2023-05-21T02:34:57.830Z,21.63
2023-05-21T02:37:26.747Z,21.64
2023-05-21T02:39:53.669Z,21.62
2023-05-21T02:42:19.641Z,21.63
2023-05-21T02:44:45.289Z,21.61
2023-05-21T02:47:11.773Z,21.61
2023-05-21T02:49:37.526Z,21.63
2023-05-21T02:52:03.975Z,21.61
2023-05-21T02:54:29.652Z,21.59
2023-05-21T02:56:55.803Z,21.61
2023-05-21T02:59:21.446Z,21.65
2023-05-21T03:01:47.183Z,21.63
2023-05-21T03:04:12.921Z,21.60
2023-05-21T03:06:38.574Z,21.63
2023-05-21T03:09:05.144Z,21.62
2023-05-21T03:11:30.974Z,21.63
2023-05-21T03:13:56.710Z,21.61
2023-05-21T03:16:22.466Z,21.65
2023-05-21T03:18:48.465Z,21.62
2023-05-21T03:21:14.841Z,21.63
2023-05-21T03:23:41.774Z,21.61
2023-05-21T03:26:07.720Z,21.64
2023-05-21T03:28:34.385Z,21.62
2023-05-21T03:31:00.164Z,21.62
2023-05-21T03:33:25.880Z,21.62
2023-05-21T03:35:51.529Z,21.64
2023-05-21T03:38:17.173Z,21.64
2023-05-21T03:40:42.961Z,21.61
2023-05-21T03:43:08.602Z,21.62
2023-05-21T03:45:34.544Z,21.62
2023-05-21T03:48:01.146Z,21.62
2023-05-21T03:50:26.957Z,21.62
2023-05-21T03:52:52.618Z,21.63
2023-05-21T03:55:18.297Z,21.62
2023-05-21T03:57:43.957Z,21.64
2023-05-21T04:00:09.890Z,21.62
2023-05-21T04:02:35.680Z,21.62
2023-05-21T04:05:01.416Z,21.63
2023-05-21T04:07:29.082Z,21.64
2023-05-21T04:09:55.200Z,21.66
2023-05-21T04:12:21.484Z,21.64
2023-05-21T04:14:47.247Z,21.63
2023-05-21T04:17:13.093Z,21.63
2023-05-21T04:19:38.801Z,21.64
2023-05-21T04:22:04.613Z,21.64
2023-05-21T04:24:30.449Z,21.65
2023-05-21T04:27:00.298Z,21.63
2023-05-21T04:29:27.099Z,21.65
2023-05-21T04:31:52.798Z,21.66
2023-05-21T04:34:19.065Z,21.66
2023-05-21T04:36:45.181Z,21.63
2023-05-21T04:39:11.557Z,21.66
2023-05-21T04:41:38.123Z,21.63
2023-05-21T04:44:06.118Z,21.62
2023-05-21T04:46:31.778Z,21.64
2023-05-21T04:49:01.987Z,21.63
2023-05-21T04:51:28.127Z,21.63
2023-05-21T04:53:53.862Z,21.64
2023-05-21T04:56:20.963Z,21.63
2023-05-21T04:58:47.324Z,21.65
2023-05-21T05:01:14.124Z,21.65
2023-05-21T05:03:39.807Z,21.64
2023-05-21T05:06:06.907Z,21.64
2023-05-21T05:08:33.118Z,21.62
2023-05-21T05:10:58.816Z,21.63
2023-05-21T05:13:25.302Z,21.66
2023-05-21T05:15:54.566Z,21.66
2023-05-21T05:18:20.441Z,21.66
2023-05-21T05:20:46.893Z,21.65
2023-05-21T05:23:12.608Z,21.65
2023-05-21T05:25:38.448Z,21.64
2023-05-21T05:28:04.294Z,21.63
2023-05-21T05:30:29.926Z,21.64
2023-05-21T05:32:55.746Z,21.66
2023-05-21T05:35:21.421Z,21.66
2023-05-21T05:37:47.100Z,21.67
2023-05-21T05:40:12.774Z,21.66
2023-05-21T05:42:38.469Z,21.65
2023-05-21T05:45:04.271Z,21.65
2023-05-21T05:47:30.536Z,21.65
2023-05-21T05:49:56.298Z,21.64
2023-05-21T05:52:21.982Z,21.65
2023-05-21T05:54:47.632Z,21.63
2023-05-21T05:57:13.466Z,21.63
2023-05-21T05:59:39.129Z,21.63
2023-05-21T06:02:04.999Z,21.64
2023-05-21T06:04:30.768Z,21.63
2023-05-21T06:06:57.806Z,21.64
2023-05-21T06:09:24.003Z,21.63
2023-05-21T06:11:49.684Z,21.62
2023-05-21T06:14:15.374Z,21.64
2023-05-21T06:16:41.118Z,21.66
2023-05-21T06:19:06.900Z,21.65
2023-05-21T06:21:32.599Z,21.63
2023-05-21T06:23:58.515Z,21.62
2023-05-21T06:26:24.331Z,21.62
2023-05-21T06:28:50.078Z,21.64
2023-05-21T06:31:16.032Z,21.63
2023-05-21T06:33:41.782Z,21.66
2023-05-21T06:36:07.540Z,21.67
2023-05-21T06:38:33.365Z,21.65
2023-05-21T06:40:59.015Z,21.65
2023-05-21T06:43:24.765Z,21.64
2023-05-21T06:45:50.467Z,21.64
2023-05-21T06:48:16.620Z,21.65
2023-05-21T06:50:42.857Z,21.64
2023-05-21T06:53:09.094Z,21.64
2023-05-21T06:55:35.280Z,21.64
2023-05-21T06:58:01.143Z,21.67
2023-05-21T07:00:26.870Z,21.66
2023-05-21T07:02:52.665Z,21.65
2023-05-21T07:05:18.402Z,21.66
2023-05-21T07:07:44.060Z,21.64
2023-05-21T07:10:09.804Z,21.64
2023-05-21T07:12:35.435Z,21.64
2023-05-21T07:15:01.224Z,21.64
2023-05-21T07:17:26.952Z,21.64
2023-05-21T07:19:52.661Z,21.65
2023-05-21T07:22:18.294Z,21.67
2023-05-21T07:24:43.941Z,21.66
2023-05-21T07:27:24.658Z,21.66
2023-05-21T07:29:51.188Z,21.64
2023-05-21T07:32:16.836Z,21.65
2023-05-21T07:34:42.526Z,21.64
2023-05-21T07:37:08.169Z,21.63
2023-05-21T07:39:33.833Z,21.65
2023-05-21T07:41:59.624Z,21.65
2023-05-21T07:44:25.458Z,21.64
2023-05-21T07:46:51.091Z,21.62
2023-05-21T07:49:17.080Z,21.63
2023-05-21T07:51:43.363Z,21.67
2023-05-21T07:54:09.424Z,21.64
2023-05-21T07:56:35.188Z,21.66
2023-05-21T07:59:00.854Z,21.66
2023-05-21T08:01:28.663Z,21.67
2023-05-21T08:03:54.908Z,21.66
2023-05-21T08:06:21.532Z,21.65
2023-05-21T08:08:47.273Z,21.65
2023-05-21T08:11:12.996Z,21.64
2023-05-21T08:13:38.649Z,21.64
2023-05-21T08:16:05.164Z,21.65
2023-05-21T08:18:31.098Z,21.65
2023-05-21T08:20:56.924Z,21.67
2023-05-21T08:23:22.569Z,21.65
2023-05-21T08:25:48.310Z,21.65
2023-05-21T08:28:13.978Z,21.65
2023-05-21T08:30:40.383Z,21.65
2023-05-21T08:33:06.078Z,21.65
2023-05-21T08:35:31.791Z,21.65
2023-05-21T08:37:57.938Z,21.65
2023-05-21T08:40:23.621Z,21.66
2023-05-21T08:42:49.705Z,21.64
2023-05-21T08:45:20.228Z,21.68
2023-05-21T08:47:46.016Z,21.65
2023-05-21T08:50:13.165Z,21.65
2023-05-21T08:52:39.111Z,21.69
2023-05-21T08:55:05.402Z,21.66
2023-05-21T08:57:31.240Z,21.65
2023-05-21T08:59:57.540Z,21.66
2023-05-21T09:02:24.339Z,21.64
2023-05-21T09:04:56.294Z,21.66
2023-05-21T09:07:24.420Z,21.66
2023-05-21T09:09:56.559Z,21.63
2023-05-21T09:12:24.618Z,21.67
2023-05-21T09:14:50.587Z,21.65
2023-05-21T09:17:16.283Z,21.66
2023-05-21T09:20:08.756Z,21.67
2023-05-21T09:22:37.027Z,21.65
2023-05-21T09:25:03.962Z,21.65
2023-05-21T09:27:29.735Z,21.65
2023-05-21T09:29:55.384Z,21.66
2023-05-21T09:32:21.032Z,21.67
2023-05-21T09:34:47.186Z,21.66
2023-05-21T09:37:23.879Z,21.66
2023-05-21T09:39:52.605Z,21.65
2023-05-21T09:42:20.261Z,21.68
2023-05-21T09:44:46.716Z,21.68
2023-05-21T09:47:12.375Z,21.67
2023-05-21T09:49:38.038Z,21.66
2023-05-21T09:52:03.864Z,21.64
2023-05-21T09:54:32.468Z,21.67
2023-05-21T09:57:00.471Z,21.64
2023-05-21T09:59:34.978Z,21.66
2023-05-21T10:02:01.426Z,21.64
2023-05-21T10:04:29.812Z,21.66
2023-05-21T10:06:55.901Z,21.67
2023-05-21T10:09:21.693Z,21.65
2023-05-21T10:11:49.000Z,21.65
2023-05-21T10:14:18.094Z,21.67
2023-05-21T10:16:44.586Z,21.66
2023-05-21T10:19:10.642Z,21.67
2023-05-21T10:21:36.547Z,21.67
2023-05-21T10:24:03.413Z,21.67
2023-05-21T10:26:29.794Z,21.66
2023-05-21T10:28:56.424Z,21.65
2023-05-21T10:31:22.272Z,21.66
2023-05-21T10:33:48.260Z,21.65
2023-05-21T10:36:16.489Z,21.65
2023-05-21T10:38:43.151Z,21.66
2023-05-21T10:41:09.156Z,21.66
2023-05-21T10:43:58.340Z,21.67
2023-05-21T10:49:43.685Z,21.67
2023-05-21T10:52:34.106Z,21.67
2023-05-21T10:55:39.561Z,21.65
2023-05-21T10:58:45.024Z,21.68
2023-05-21T11:01:11.150Z,21.68
2023-05-21T11:03:37.918Z,21.67
2023-05-21T11:06:05.615Z,21.66
2023-05-21T11:08:34.766Z,21.65
2023-05-21T11:11:01.609Z,21.67
2023-05-21T11:13:31.849Z,21.66
2023-05-21T11:21:13.407Z,21.67
2023-05-21T11:24:05.505Z,21.68
2023-05-21T11:29:39.649Z,21.67
2023-05-21T11:32:08.282Z,21.68
2023-05-21T11:34:39.219Z,21.66
2023-05-21T11:39:55.554Z,21.67
2023-05-21T11:42:30.901Z,21.67
2023-05-21T11:44:58.378Z,21.66
2023-05-21T11:47:25.567Z,21.68
2023-05-21T11:49:51.281Z,21.69
2023-05-21T11:52:18.839Z,21.66
2023-05-21T11:54:47.687Z,21.65
2023-05-21T11:57:18.382Z,21.65
2023-05-21T11:59:44.747Z,21.66
2023-05-21T12:02:15.670Z,21.68
2023-05-21T12:04:41.781Z,21.67
2023-05-21T12:07:09.361Z,21.69
2023-05-21T12:09:41.717Z,21.69
2023-05-21T12:12:08.444Z,21.66
2023-05-21T12:14:35.252Z,21.67
2023-05-21T12:17:02.808Z,21.69
2023-05-21T12:19:31.987Z,21.68
2023-05-21T12:22:00.269Z,21.68
2023-05-21T12:24:26.320Z,21.66
2023-05-21T12:26:52.027Z,21.67
2023-05-21T12:29:17.746Z,21.66
2023-05-21T12:31:49.127Z,21.67
2023-05-21T12:34:18.377Z,21.67
2023-05-21T12:36:47.400Z,21.68
2023-05-21T12:39:14.311Z,21.67
2023-05-21T12:41:39.989Z,21.68
2023-05-21T12:44:07.822Z,21.69
2023-05-21T12:46:33.728Z,21.66
2023-05-21T12:48:59.453Z,21.69
2023-05-21T12:51:25.097Z,21.67
2023-05-21T12:53:50.727Z,21.67
2023-05-21T12:56:16.364Z,21.68
2023-05-21T12:58:42.200Z,21.67
2023-05-21T13:01:08.967Z,21.68
2023-05-21T13:03:35.265Z,21.67
2023-05-21T13:06:01.679Z,21.68
2023-05-21T13:08:27.568Z,21.68
2023-05-21T13:10:53.221Z,21.67
2023-05-21T13:13:18.878Z,21.68
2023-05-21T13:15:44.557Z,21.69
2023-05-21T13:18:11.501Z,21.68
2023-05-21T13:20:37.745Z,21.69
2023-05-21T13:23:06.229Z,21.68
2023-05-21T13:25:32.870Z,21.68
2023-05-21T13:28:02.111Z,21.66
2023-05-21T13:30:27.785Z,21.69
2023-05-21T13:32:53.554Z,21.69
2023-05-21T13:35:19.684Z,21.67
2023-05-21T13:37:45.554Z,21.69
2023-05-21T13:40:14.071Z,21.69
2023-05-21T13:42:39.918Z,21.66
2023-05-21T13:45:07.328Z,21.68
2023-05-21T13:47:33.242Z,21.70
2023-05-21T13:49:58.951Z,21.69
2023-05-21T13:52:24.624Z,21.67
2023-05-21T13:54:50.273Z,21.69
2023-05-21T13:57:16.097Z,21.68
2023-05-21T13:59:41.958Z,21.69
2023-05-21T14:02:08.576Z,21.68
2023-05-21T14:04:34.288Z,21.67
2023-05-21T14:07:00.296Z,21.66
2023-05-21T14:09:26.449Z,21.69
2023-05-21T14:11:54.230Z,21.68
2023-05-21T14:14:19.879Z,21.68
2023-05-21T14:16:46.354Z,21.68
2023-05-21T14:19:12.138Z,21.69
2023-05-21T14:21:37.854Z,21.68
2023-05-21T14:24:03.790Z,21.68
2023-05-21T14:26:29.798Z,21.69
2023-05-21T14:28:55.546Z,21.70
2023-05-21T14:31:22.375Z,21.68
2023-05-21T14:33:48.432Z,21.70
2023-05-21T14:36:14.445Z,21.72
2023-05-21T14:38:40.097Z,21.68
2023-05-21T14:41:06.366Z,21.68
2023-05-21T14:43:32.694Z,21.69
2023-05-21T14:45:58.388Z,21.69
2023-05-21T14:48:24.064Z,21.67
2023-05-21T14:50:50.489Z,21.70
2023-05-21T14:53:16.531Z,21.69
2023-05-21T14:55:42.609Z,21.69
2023-05-21T14:58:08.420Z,21.67
2023-05-21T15:00:35.328Z,21.70
2023-05-21T15:03:01.216Z,21.70
2023-05-21T15:05:28.459Z,21.69
2023-05-21T15:07:55.760Z,21.68
2023-05-21T15:10:23.210Z,21.69
2023-05-21T15:12:49.562Z,21.68
2023-05-21T15:15:16.301Z,21.70
2023-05-21T15:17:42.524Z,21.68
2023-05-21T15:20:08.637Z,21.70
2023-05-21T15:22:34.760Z,21.71
2023-05-21T15:25:00.795Z,21.71
2023-05-21T15:27:26.512Z,21.70
2023-05-21T15:29:52.563Z,21.69
2023-05-21T15:32:20.066Z,21.71
2023-05-21T15:34:46.636Z,21.69
2023-05-21T15:37:15.383Z,21.69
2023-05-21T15:39:41.919Z,21.68
2023-05-21T15:42:07.592Z,21.68
2023-05-21T15:44:33.249Z,21.70
2023-05-21T15:46:58.986Z,21.70
2023-05-21T15:49:24.704Z,21.69
2023-05-21T15:51:50.745Z,21.68
2023-05-21T15:54:16.499Z,21.69
2023-05-21T15:56:43.709Z,21.71
2023-05-21T15:59:09.368Z,21.70
2023-05-21T16:01:35.138Z,21.71
2023-05-21T16:04:02.391Z,21.69
2023-05-21T16:06:28.699Z,21.69
2023-05-21T16:08:54.377Z,21.68
2023-05-21T16:11:20.612Z,21.71
2023-05-21T16:13:46.273Z,21.71
2023-05-21T16:16:12.016Z,21.72
2023-05-21T16:18:37.802Z,21.70
2023-05-21T16:21:03.643Z,21.70
2023-05-21T16:23:29.304Z,21.71
2023-05-21T16:25:55.005Z,21.70
2023-05-21T16:28:23.423Z,21.71
2023-05-21T16:30:49.484Z,21.71
2023-05-21T16:33:15.700Z,21.70
2023-05-21T16:35:41.389Z,21.71
2023-05-21T16:38:07.048Z,21.70
2023-05-21T16:40:32.699Z,21.69
2023-05-21T16:45:24.250Z,21.71
2023-05-21T16:47:50.618Z,21.71
2023-05-21T16:50:17.495Z,21.70
2023-05-21T16:52:43.187Z,21.69
2023-05-21T16:55:09.003Z,21.70
2023-05-21T16:57:34.937Z,21.72
2023-05-21T17:00:02.694Z,21.68
2023-05-21T17:02:28.445Z,21.69
2023-05-21T17:04:54.211Z,21.70
2023-05-21T17:07:19.895Z,21.70
2023-05-21T17:09:45.532Z,21.69
2023-05-21T17:12:11.207Z,21.69
2023-05-21T17:14:39.635Z,21.70
2023-05-21T17:17:05.848Z,21.71
2023-05-21T17:19:31.725Z,21.70
2023-05-21T17:21:57.502Z,21.71
2023-05-21T17:24:23.310Z,21.72
2023-05-21T17:26:48.959Z,21.71
2023-05-21T17:29:14.676Z,21.69
2023-05-21T17:31:40.428Z,21.69
2023-05-21T17:34:06.123Z,21.71
2023-05-21T17:36:32.312Z,21.69
2023-05-21T17:38:58.385Z,21.71
2023-05-21T17:41:25.144Z,21.71
2023-05-21T17:43:50.926Z,21.70
2023-05-21T17:46:17.369Z,21.72
2023-05-21T17:48:43.860Z,21.73
2023-05-21T17:51:10.246Z,21.72
2023-05-21T17:53:35.900Z,21.72
2023-05-21T17:56:02.555Z,21.70
2023-05-21T17:58:28.539Z,21.69
2023-05-21T18:00:54.209Z,21.72
2023-05-21T18:03:20.204Z,21.72
2023-05-21T18:05:45.901Z,21.73
2023-05-21T18:08:11.690Z,21.71
2023-05-21T18:10:37.372Z,21.70
2023-05-21T18:13:03.374Z,21.72
2023-05-21T18:15:29.048Z,21.71
2023-05-21T18:17:55.090Z,21.72
2023-05-21T18:20:20.791Z,21.71
2023-05-21T18:22:46.437Z,21.70
2023-05-21T18:25:12.156Z,21.71
2023-05-21T18:27:37.902Z,21.72
2023-05-21T18:30:05.510Z,21.71
2023-05-21T18:32:32.661Z,21.70
2023-05-21T18:34:58.436Z,21.72
2023-05-21T18:37:25.041Z,21.71
2023-05-21T18:39:50.694Z,21.71
2023-05-21T18:42:16.347Z,21.72
2023-05-21T18:44:44.906Z,21.73
2023-05-21T18:47:11.882Z,21.72
2023-05-21T18:49:38.051Z,21.74
2023-05-21T18:52:05.400Z,21.72
2023-05-21T18:54:31.356Z,21.71
2023-05-21T18:56:59.340Z,21.71
2023-05-21T18:59:25.851Z,21.71
2023-05-21T19:01:51.798Z,21.70
2023-05-21T19:04:18.999Z,21.70
2023-05-21T19:06:45.475Z,21.70
2023-05-21T19:09:11.113Z,21.71
2023-05-21T19:11:36.995Z,21.70
2023-05-21T19:14:03.120Z,21.71
2023-05-21T19:16:29.084Z,21.72
2023-05-21T19:18:54.952Z,21.70
2023-05-21T19:21:20.621Z,21.72
2023-05-21T19:23:53.446Z,21.72
2023-05-21T19:26:20.627Z,21.71
2023-05-21T19:28:46.959Z,21.73
2023-05-21T19:31:12.618Z,21.72
2023-05-21T19:33:38.347Z,21.71
2023-05-21T19:36:04.144Z,21.71
2023-05-21T19:38:29.789Z,21.71
2023-05-21T19:40:55.452Z,21.71
2023-05-21T19:43:21.098Z,21.72
2023-05-21T19:45:46.766Z,21.71
2023-05-21T19:48:12.486Z,21.72
2023-05-21T19:50:38.387Z,21.72
2023-05-21T19:53:04.183Z,21.70
2023-05-21T19:55:34.321Z,21.73
2023-05-21T19:58:00.736Z,21.72
2023-05-21T20:00:26.471Z,21.71
2023-05-21T20:02:52.227Z,21.71
2023-05-21T20:05:19.162Z,21.72
2023-05-21T20:07:44.979Z,21.75
2023-05-21T20:10:10.643Z,21.72
2023-05-21T20:12:37.007Z,21.73
2023-05-21T20:15:04.716Z,21.74
2023-05-21T20:17:33.019Z,21.72
2023-05-21T20:20:00.465Z,21.72
2023-05-21T20:22:27.099Z,21.72
2023-05-21T20:24:53.299Z,21.72
2023-05-21T20:27:19.155Z,21.74
2023-05-21T20:29:45.267Z,21.73
2023-05-21T20:32:10.946Z,21.71
2023-05-21T20:34:37.893Z,21.74
2023-05-21T20:37:05.094Z,21.72
2023-05-21T20:39:30.753Z,21.73
2023-05-21T20:41:57.505Z,21.74
2023-05-21T20:44:25.054Z,21.72
2023-05-21T20:46:51.768Z,21.73
2023-05-21T20:49:17.753Z,21.74
2023-05-21T20:51:43.521Z,21.74
2023-05-21T20:54:10.281Z,21.72
2023-05-21T20:56:42.079Z,21.73
2023-05-21T20:59:10.474Z,21.73
2023-05-21T21:01:36.860Z,21.72
2023-05-21T21:04:03.079Z,21.73
2023-05-21T21:06:30.869Z,21.73
2023-05-21T21:08:57.003Z,21.73
2023-05-21T21:11:22.988Z,21.73
2023-05-21T21:13:49.119Z,21.73
2023-05-21T21:16:14.827Z,21.73
2023-05-21T21:18:40.645Z,21.73
2023-05-21T21:21:06.288Z,21.75
2023-05-21T21:23:32.433Z,21.73
2023-05-21T21:25:58.089Z,21.72
2023-05-21T21:28:23.727Z,21.73
2023-05-21T21:30:49.512Z,21.73
2023-05-21T21:33:15.722Z,21.74
2023-05-21T21:35:41.532Z,21.72
2023-05-21T21:38:07.403Z,21.72
2023-05-21T21:40:33.062Z,21.73
2023-05-21T21:42:58.714Z,21.72
2023-05-21T21:45:24.595Z,21.72
2023-05-21T21:47:50.307Z,21.73
2023-05-21T21:50:16.069Z,21.74
2023-05-21T21:52:41.746Z,21.73
2023-05-21T21:55:09.319Z,21.73
2023-05-21T21:57:35.409Z,21.74
2023-05-21T22:00:01.490Z,21.74
2023-05-21T22:02:27.154Z,21.73
2023-05-21T22:04:52.851Z,21.73
2023-05-21T22:07:18.849Z,21.73
2023-05-21T22:09:44.917Z,21.73
2023-05-21T22:12:11.072Z,21.72
2023-05-21T22:14:37.314Z,21.72
2023-05-21T22:17:03.317Z,21.73
2023-05-21T22:19:31.950Z,21.72
2023-05-21T22:22:01.175Z,21.72
2023-05-21T22:24:32.564Z,21.73
2023-05-21T22:26:58.959Z,21.73
2023-05-21T22:29:24.658Z,21.71
2023-05-21T22:31:50.400Z,21.74
2023-05-21T22:34:16.061Z,21.74
2023-05-21T22:36:43.852Z,21.73
2023-05-21T22:39:09.524Z,21.73
2023-05-21T22:41:35.177Z,21.72
2023-05-21T22:44:00.823Z,21.72
2023-05-21T22:46:26.530Z,21.73
2023-05-21T22:48:53.061Z,21.70
2023-05-21T22:51:18.791Z,21.74
2023-05-21T22:53:44.651Z,21.71
2023-05-21T22:56:10.514Z,21.72
2023-05-21T22:58:36.229Z,21.71
2023-05-21T23:01:03.566Z,21.70
2023-05-21T23:03:29.253Z,21.70
2023-05-21T23:05:54.955Z,21.73
2023-05-21T23:08:20.594Z,21.74
2023-05-21T23:10:46.238Z,21.74
2023-05-21T23:13:12.017Z,21.75
2023-05-21T23:15:37.949Z,21.71
2023-05-21T23:18:04.003Z,21.73
2023-05-21T23:20:31.496Z,21.74
2023-05-21T23:22:57.217Z,21.72
2023-05-21T23:25:22.850Z,21.72
2023-05-21T23:27:48.518Z,21.71
2023-05-21T23:30:14.268Z,21.71
2023-05-21T23:32:40.103Z,21.73
2023-05-21T23:35:06.684Z,21.71
2023-05-21T23:37:32.390Z,21.72
2023-05-21T23:39:58.052Z,21.73
2023-05-21T23:42:23.760Z,21.72
2023-05-21T23:44:49.427Z,21.69
2023-05-21T23:47:15.107Z,21.71
2023-05-21T23:49:40.761Z,21.73
2023-05-21T23:52:06.596Z,21.72
2023-05-21T23:54:32.254Z,21.71
2023-05-21T23:56:57.890Z,21.70
2023-05-21T23:59:23.548Z,21.72
